Terminal Aerodrome Forecast
Issued by NWS

Home | Current Version | Previous Version | Text Only | Print | Product List | Glossary On
Versions: 1 2 3 4 5 6 7 8 9 10 11 12 13 14 15 16 17 18
842
FTUS41 KBGM 111138
TAFELM
TAF
KELM 111138Z 1112/1212 20003KT P6SM OVC060
     FM111500 18007KT P6SM -SN OVC035
      TEMPO 1116/1120 2SM -SN OVC020
     FM112000 18008KT 1SM -SN OVC015
     FM120500 18009KT 3SM -SN OVC015
     FM120900 19008KT P6SM OVC012=

USA.gov is the U.S. government's official web portal to all federal, state and local government web resources and services.